sensor_id;sensor_type;location;lat;lon;timestamp;pressure;altitude;pressure_sealevel;temperature;humidity
74163;BME280;62515;52.758;5.076;2023-02-13T00:01:53;103944.91;;;5.64;100.00
74163;BME280;62515;52.758;5.076;2023-02-13T00:04:20;103948.41;;;5.63;100.00
74163;BME280;62515;52.758;5.076;2023-02-13T00:06:47;103941.38;;;5.64;100.00
74163;BME280;62515;52.758;5.076;2023-02-13T00:09:14;103944.00;;;5.64;100.00
74163;BME280;62515;52.758;5.076;2023-02-13T00:11:41;103951.03;;;5.66;100.00
74163;BME280;62515;52.758;5.076;2023-02-13T00:14:07;103942.25;;;5.70;100.00
74163;BME280;62515;52.758;5.076;2023-02-13T00:16:34;103945.75;;;5.69;100.00
74163;BME280;62515;52.758;5.076;2023-02-13T00:19:03;103932.53;;;5.69;100.00
74163;BME280;62515;52.758;5.076;2023-02-13T00:21:30;103937.84;;;5.68;100.00
74163;BME280;62515;52.758;5.076;2023-02-13T00:23:57;103938.72;;;5.67;100.00
74163;BME280;62515;52.758;5.076;2023-02-13T00:26:24;103933.47;;;5.65;100.00
74163;BME280;62515;52.758;5.076;2023-02-13T00:28:51;103934.31;;;5.67;100.00
74163;BME280;62515;52.758;5.076;2023-02-13T00:31:20;103930.81;;;5.68;100.00
74163;BME280;62515;52.758;5.076;2023-02-13T00:33:48;103933.44;;;5.68;100.00
74163;BME280;62515;52.758;5.076;2023-02-13T00:36:18;103928.16;;;5.68;100.00
74163;BME280;62515;52.758;5.076;2023-02-13T00:38:46;103924.63;;;5.69;100.00
74163;BME280;62515;52.758;5.076;2023-02-13T00:41:13;103927.25;;;5.69;100.00
74163;BME280;62515;52.758;5.076;2023-02-13T00:43:40;103925.50;;;5.71;100.00
74163;BME280;62515;52.758;5.076;2023-02-13T00:46:07;103916.69;;;5.74;100.00
74163;BME280;62515;52.758;5.076;2023-02-13T00:48:35;103919.34;;;5.71;100.00
74163;BME280;62515;52.758;5.076;2023-02-13T00:51:04;103918.47;;;5.70;100.00
74163;BME280;62515;52.758;5.076;2023-02-13T00:53:33;103914.06;;;5.68;100.00
74163;BME280;62515;52.758;5.076;2023-02-13T00:56:00;103909.69;;;5.62;100.00
74163;BME280;62515;52.758;5.076;2023-02-13T00:58:27;103909.69;;;5.62;100.00
74163;BME280;62515;52.758;5.076;2023-02-13T01:00:54;103905.25;;;5.67;100.00
74163;BME280;62515;52.758;5.076;2023-02-13T01:03:23;103899.97;;;5.64;100.00
74163;BME280;62515;52.758;5.076;2023-02-13T01:05:50;103905.25;;;5.70;100.00
74163;BME280;62515;52.758;5.076;2023-02-13T01:08:18;103903.47;;;5.72;100.00
74163;BME280;62515;52.758;5.076;2023-02-13T01:10:48;103904.34;;;5.74;100.00
74163;BME280;62515;52.758;5.076;2023-02-13T01:13:16;103896.44;;;5.71;100.00
74163;BME280;62515;52.758;5.076;2023-02-13T01:15:43;103907.88;;;5.73;100.00
74163;BME280;62515;52.758;5.076;2023-02-13T01:18:12;103899.94;;;5.73;100.00
74163;BME280;62515;52.758;5.076;2023-02-13T01:20:39;103905.22;;;5.76;100.00
74163;BME280;62515;52.758;5.076;2023-02-13T01:23:06;103904.31;;;5.82;100.00
74163;BME280;62515;52.758;5.076;2023-02-13T01:25:33;103905.22;;;5.81;100.00
74163;BME280;62515;52.758;5.076;2023-02-13T01:28:01;103905.22;;;5.81;100.00
74163;BME280;62515;52.758;5.076;2023-02-13T01:30:28;103896.41;;;5.79;100.00
74163;BME280;62515;52.758;5.076;2023-02-13T01:32:55;103897.28;;;5.76;100.00
74163;BME280;62515;52.758;5.076;2023-02-13T01:35:22;103885.84;;;5.73;100.00
74163;BME280;62515;52.758;5.076;2023-02-13T01:37:49;103892.03;;;5.67;100.00
74163;BME280;62515;52.758;5.076;2023-02-13T01:40:15;103893.84;;;5.62;100.00
74163;BME280;62515;52.758;5.076;2023-02-13T01:42:43;103898.22;;;5.60;100.00
74163;BME280;62515;52.758;5.076;2023-02-13T01:45:29;103895.59;;;5.60;100.00
74163;BME280;62515;52.758;5.076;2023-02-13T01:47:59;103903.50;;;5.63;100.00
74163;BME280;62515;52.758;5.076;2023-02-13T01:50:31;103897.31;;;5.63;100.00
74163;BME280;62515;52.758;5.076;2023-02-13T01:53:01;103894.69;;;5.66;100.00
74163;BME280;62515;52.758;5.076;2023-02-13T01:55:31;103901.72;;;5.70;100.00
74163;BME280;62515;52.758;5.076;2023-02-13T01:58:03;103907.88;;;5.70;100.00
74163;BME280;62515;52.758;5.076;2023-02-13T02:00:34;103899.09;;;5.65;100.00
74163;BME280;62515;52.758;5.076;2023-02-13T02:03:07;103900.84;;;5.63;100.00
74163;BME280;62515;52.758;5.076;2023-02-13T02:05:37;103899.09;;;5.65;100.00
74163;BME280;62515;52.758;5.076;2023-02-13T02:08:07;103899.09;;;5.67;100.00
74163;BME280;62515;52.758;5.076;2023-02-13T02:10:36;103893.81;;;5.67;100.00
74163;BME280;62515;52.758;5.076;2023-02-13T02:13:08;103892.94;;;5.68;100.00
74163;BME280;62515;52.758;5.076;2023-02-13T02:15:40;103891.16;;;5.67;100.00
74163;BME280;62515;52.758;5.076;2023-02-13T02:18:12;103885.00;;;5.66;100.00
74163;BME280;62515;52.758;5.076;2023-02-13T02:27:06;103886.75;;;5.67;100.00
74163;BME280;62515;52.758;5.076;2023-02-13T02:32:54;103872.66;;;5.71;100.00
74163;BME280;62515;52.758;5.076;2023-02-13T02:35:35;103870.88;;;5.73;100.00
74163;BME280;62515;52.758;5.076;2023-02-13T02:38:16;103869.13;;;5.69;100.00
74163;BME280;62515;52.758;5.076;2023-02-13T02:40:57;103866.47;;;5.74;100.00
74163;BME280;62515;52.758;5.076;2023-02-13T02:43:43;103870.88;;;5.78;100.00
74163;BME280;62515;52.758;5.076;2023-02-13T02:46:16;103868.22;;;5.79;100.00
74163;BME280;62515;52.758;5.076;2023-02-13T02:48:54;103867.34;;;5.80;100.00
74163;BME280;62515;52.758;5.076;2023-02-13T02:51:24;103869.13;;;5.78;100.00
74163;BME280;62515;52.758;5.076;2023-02-13T02:54:00;103865.56;;;5.79;100.00
74163;BME280;62515;52.758;5.076;2023-02-13T02:56:34;103869.09;;;5.75;100.00
74163;BME280;62515;52.758;5.076;2023-02-13T02:59:05;103868.25;;;5.75;100.00
74163;BME280;62515;52.758;5.076;2023-02-13T03:01:34;103866.47;;;5.74;100.00
74163;BME280;62515;52.758;5.076;2023-02-13T03:04:03;103870.00;;;5.76;100.00
74163;BME280;62515;52.758;5.076;2023-02-13T03:06:36;103867.34;;;5.73;100.00
74163;BME280;62515;52.758;5.076;2023-02-13T03:09:09;103863.84;;;5.69;100.00
74163;BME280;62515;52.758;5.076;2023-02-13T03:11:40;103862.09;;;5.68;100.00
74163;BME280;62515;52.758;5.076;2023-02-13T03:14:09;103858.56;;;5.66;100.00
74163;BME280;62515;52.758;5.076;2023-02-13T03:16:40;103859.47;;;5.64;100.00
74163;BME280;62515;52.758;5.076;2023-02-13T03:19:17;103855.09;;;5.61;100.00
74163;BME280;62515;52.758;5.076;2023-02-13T03:21:47;103856.84;;;5.62;100.00
74163;BME280;62515;52.758;5.076;2023-02-13T03:24:21;103852.44;;;5.61;100.00
74163;BME280;62515;52.758;5.076;2023-02-13T03:26:56;103857.69;;;5.66;100.00
74163;BME280;62515;52.758;5.076;2023-02-13T03:29:36;103860.34;;;5.67;100.00
74163;BME280;62515;52.758;5.076;2023-02-13T03:32:12;103863.84;;;5.69;100.00
74163;BME280;62515;52.758;5.076;2023-02-13T03:34:49;103862.09;;;5.68;100.00
74163;BME280;62515;52.758;5.076;2023-02-13T03:37:23;103864.75;;;5.67;100.00
74163;BME280;62515;52.758;5.076;2023-02-13T03:39:59;103862.09;;;5.59;100.00
74163;BME280;62515;52.758;5.076;2023-02-13T03:42:39;103865.66;;;5.61;100.00
74163;BME280;62515;52.758;5.076;2023-02-13T03:45:11;103863.88;;;5.63;100.00
74163;BME280;62515;52.758;5.076;2023-02-13T03:47:39;103868.28;;;5.60;100.00
74163;BME280;62515;52.758;5.076;2023-02-13T03:50:09;103863.00;;;5.60;100.00
74163;BME280;62515;52.758;5.076;2023-02-13T03:52:41;103858.59;;;5.57;100.00
74163;BME280;62515;52.758;5.076;2023-02-13T03:55:13;103857.72;;;5.60;100.00
74163;BME280;62515;52.758;5.076;2023-02-13T03:57:43;103859.47;;;5.64;100.00
74163;BME280;62515;52.758;5.076;2023-02-13T04:00:12;103865.63;;;5.64;100.00
74163;BME280;62515;52.758;5.076;2023-02-13T04:02:57;103861.25;;;5.65;100.00
74163;BME280;62515;52.758;5.076;2023-02-13T04:05:29;103863.88;;;5.63;100.00
74163;BME280;62515;52.758;5.076;2023-02-13T04:07:57;103851.53;;;5.59;100.00
74163;BME280;62515;52.758;5.076;2023-02-13T04:10:26;103857.72;;;5.60;100.00
74163;BME280;62515;52.758;5.076;2023-02-13T04:13:04;103851.56;;;5.62;100.00
74163;BME280;62515;52.758;5.076;2023-02-13T04:15:37;103848.03;;;5.62;100.00
74163;BME280;62515;52.758;5.076;2023-02-13T04:18:09;103851.56;;;5.56;100.00
74163;BME280;62515;52.758;5.076;2023-02-13T04:20:40;103847.19;;;5.52;100.00
74163;BME280;62515;52.758;5.076;2023-02-13T04:23:08;103858.63;;;5.54;100.00
74163;BME280;62515;52.758;5.076;2023-02-13T04:25:36;103849.81;;;5.54;100.00
74163;BME280;62515;52.758;5.076;2023-02-13T04:28:04;103855.97;;;5.54;100.00
74163;BME280;62515;52.758;5.076;2023-02-13T04:30:31;103856.00;;;5.48;100.00
74163;BME280;62515;52.758;5.076;2023-02-13T04:32:58;103856.00;;;5.45;100.00
74163;BME280;62515;52.758;5.076;2023-02-13T04:35:25;103849.84;;;5.40;100.00
74163;BME280;62515;52.758;5.076;2023-02-13T04:37:53;103851.63;;;5.40;100.00
74163;BME280;62515;52.758;5.076;2023-02-13T04:40:20;103859.53;;;5.37;100.00
74163;BME280;62515;52.758;5.076;2023-02-13T04:42:47;103850.75;;;5.27;100.00
74163;BME280;62515;52.758;5.076;2023-02-13T04:45:15;103856.03;;;5.25;100.00
74163;BME280;62515;52.758;5.076;2023-02-13T04:47:45;103844.63;;;5.13;100.00
74163;BME280;62515;52.758;5.076;2023-02-13T04:50:15;103846.38;;;5.23;100.00
74163;BME280;62515;52.758;5.076;2023-02-13T04:52:42;103845.47;;;5.28;100.00
74163;BME280;62515;52.758;5.076;2023-02-13T04:55:10;103846.34;;;5.32;100.00
74163;BME280;62515;52.758;5.076;2023-02-13T04:57:37;103853.38;;;5.32;100.00
74163;BME280;62515;52.758;5.076;2023-02-13T05:00:06;103842.81;;;5.30;100.00
74163;BME280;62515;52.758;5.076;2023-02-13T05:02:33;103839.31;;;5.28;100.00
74163;BME280;62515;52.758;5.076;2023-02-13T05:05:00;103843.72;;;5.29;100.00
74163;BME280;62515;52.758;5.076;2023-02-13T05:07:27;103845.47;;;5.28;100.00
74163;BME280;62515;52.758;5.076;2023-02-13T05:09:53;103845.47;;;5.27;100.00
74163;BME280;62515;52.758;5.076;2023-02-13T05:12:22;103842.81;;;5.30;100.00
74163;BME280;62515;52.758;5.076;2023-02-13T05:14:49;103841.97;;;5.30;100.00
74163;BME280;62515;52.758;5.076;2023-02-13T05:17:16;103841.06;;;5.32;100.00
74163;BME280;62515;52.758;5.076;2023-02-13T05:19:43;103844.56;;;5.34;100.00
74163;BME280;62515;52.758;5.076;2023-02-13T05:22:10;103835.78;;;5.32;100.00
74163;BME280;62515;52.758;5.076;2023-02-13T05:24:37;103830.50;;;5.29;100.00
74163;BME280;62515;52.758;5.076;2023-02-13T05:27:04;103841.06;;;5.32;100.00
74163;BME280;62515;52.758;5.076;2023-02-13T05:29:32;103846.34;;;5.31;100.00
74163;BME280;62515;52.758;5.076;2023-02-13T05:31:59;103844.59;;;5.28;100.00
74163;BME280;62515;52.758;5.076;2023-02-13T05:34:27;103841.06;;;5.31;100.00
74163;BME280;62515;52.758;5.076;2023-02-13T05:36:54;103824.34;;;5.28;100.00
74163;BME280;62515;52.758;5.076;2023-02-13T05:39:21;103833.13;;;5.31;100.00
74163;BME280;62515;52.758;5.076;2023-02-13T05:41:48;103835.75;;;5.37;100.00
74163;BME280;62515;52.758;5.076;2023-02-13T05:44:15;103836.66;;;5.34;100.00
74163;BME280;62515;52.758;5.076;2023-02-13T05:46:44;103836.63;;;5.40;100.00
74163;BME280;62515;52.758;5.076;2023-02-13T05:49:12;103833.13;;;5.38;100.00
74163;BME280;62515;52.758;5.076;2023-02-13T05:51:39;103835.75;;;5.41;100.00
74163;BME280;62515;52.758;5.076;2023-02-13T05:54:06;103841.06;;;5.40;100.00
74163;BME280;62515;52.758;5.076;2023-02-13T05:56:33;103833.13;;;5.40;100.00
74163;BME280;62515;52.758;5.076;2023-02-13T05:59:00;103832.25;;;5.38;100.00
74163;BME280;62515;52.758;5.076;2023-02-13T06:01:27;103839.28;;;5.40;100.00
74163;BME280;62515;52.758;5.076;2023-02-13T06:03:55;103843.69;;;5.41;100.00
74163;BME280;62515;52.758;5.076;2023-02-13T06:06:25;103846.34;;;5.43;100.00
74163;BME280;62515;52.758;5.076;2023-02-13T06:08:52;103841.06;;;5.43;100.00
74163;BME280;62515;52.758;5.076;2023-02-13T06:11:19;103845.44;;;5.45;100.00
74163;BME280;62515;52.758;5.076;2023-02-13T06:13:46;103850.72;;;5.48;100.00
74163;BME280;62515;52.758;5.076;2023-02-13T06:16:12;103846.28;;;5.50;100.00
74163;BME280;62515;52.758;5.076;2023-02-13T06:18:39;103844.53;;;5.48;100.00
74163;BME280;62515;52.758;5.076;2023-02-13T06:21:08;103849.84;;;5.49;100.00
74163;BME280;62515;52.758;5.076;2023-02-13T06:23:35;103847.19;;;5.51;100.00
74163;BME280;62515;52.758;5.076;2023-02-13T06:26:02;103846.28;;;5.50;100.00
74163;BME280;62515;52.758;5.076;2023-02-13T06:28:29;103851.59;;;5.49;100.00
74163;BME280;62515;52.758;5.076;2023-02-13T06:30:56;103843.66;;;5.49;100.00
74163;BME280;62515;52.758;5.076;2023-02-13T06:33:24;103847.19;;;5.49;100.00
74163;BME280;62515;52.758;5.076;2023-02-13T06:35:51;103847.19;;;5.51;100.00
74163;BME280;62515;52.758;5.076;2023-02-13T06:38:19;103841.00;;;5.50;100.00
74163;BME280;62515;52.758;5.076;2023-02-13T06:40:47;103844.53;;;5.48;100.00
74163;BME280;62515;52.758;5.076;2023-02-13T06:43:15;103846.31;;;5.47;100.00
74163;BME280;62515;52.758;5.076;2023-02-13T06:45:43;103847.19;;;5.48;100.00
74163;BME280;62515;52.758;5.076;2023-02-13T06:48:10;103838.38;;;5.49;100.00
74163;BME280;62515;52.758;5.076;2023-02-13T06:50:41;103838.38;;;5.49;100.00
74163;BME280;62515;52.758;5.076;2023-02-13T06:59:43;103854.22;;;5.53;100.00
74163;BME280;62515;52.758;5.076;2023-02-13T07:02:54;103851.56;;;5.53;100.00
74163;BME280;62515;52.758;5.076;2023-02-13T07:05:58;103858.63;;;5.54;100.00
74163;BME280;62515;52.758;5.076;2023-02-13T07:09:11;103857.72;;;5.58;100.00
74163;BME280;62515;52.758;5.076;2023-02-13T07:12:18;103862.13;;;5.62;100.00
74163;BME280;62515;52.758;5.076;2023-02-13T07:46:43;103896.44;;;5.88;100.00
74163;BME280;62515;52.758;5.076;2023-02-13T07:49:25;103886.72;;;5.89;100.00
74163;BME280;62515;52.758;5.076;2023-02-13T07:52:05;103890.25;;;5.91;100.00
74163;BME280;62515;52.758;5.076;2023-02-13T07:54:33;103892.91;;;5.88;100.00
74163;BME280;62515;52.758;5.076;2023-02-13T07:57:00;103884.94;;;5.85;100.00
74163;BME280;62515;52.758;5.076;2023-02-13T07:59:28;103880.56;;;5.87;100.00
74163;BME280;62515;52.758;5.076;2023-02-13T08:08:19;103875.25;;;5.84;100.00
74163;BME280;62515;52.758;5.076;2023-02-13T08:11:05;103881.44;;;5.86;100.00
74163;BME280;62515;52.758;5.076;2023-02-13T08:13:38;103887.59;;;5.91;100.00
74163;BME280;62515;52.758;5.076;2023-02-13T08:16:21;103882.28;;;5.95;100.00
74163;BME280;62515;52.758;5.076;2023-02-13T08:19:03;103882.28;;;5.98;100.00
74163;BME280;62515;52.758;5.076;2023-02-13T08:21:46;103884.03;;;6.04;100.00
74163;BME280;62515;52.758;5.076;2023-02-13T09:11:31;103895.06;;;6.75;100.00
74163;BME280;62515;52.758;5.076;2023-02-13T09:13:57;103898.56;;;6.77;100.00
74163;BME280;62515;52.758;5.076;2023-02-13T09:16:25;103895.03;;;6.81;100.00
74163;BME280;62515;52.758;5.076;2023-02-13T09:18:52;103888.81;;;6.84;100.00
74163;BME280;62515;52.758;5.076;2023-02-13T09:21:20;103880.94;;;6.78;100.00
74163;BME280;62515;52.758;5.076;2023-02-13T09:23:48;103896.78;;;6.82;100.00
74163;BME280;62515;52.758;5.076;2023-02-13T09:26:16;103891.50;;;6.76;100.00
74163;BME280;62515;52.758;5.076;2023-02-13T09:28:47;103895.88;;;6.85;100.00
74163;BME280;62515;52.758;5.076;2023-02-13T09:31:16;103883.50;;;6.89;100.00
74163;BME280;62515;52.758;5.076;2023-02-13T09:33:43;103888.69;;;6.99;100.00
74163;BME280;62515;52.758;5.076;2023-02-13T09:36:25;103890.41;;;7.08;100.00
74163;BME280;62515;52.758;5.076;2023-02-13T09:38:53;103894.78;;;7.09;100.00
74163;BME280;62515;52.758;5.076;2023-02-13T09:41:39;103883.25;;;7.16;100.00
74163;BME280;62515;52.758;5.076;2023-02-13T09:47:51;103887.44;;;7.38;100.00
74163;BME280;62515;52.758;5.076;2023-02-13T09:50:47;103895.44;;;7.35;100.00
74163;BME280;62515;52.758;5.076;2023-02-13T09:53:33;103892.75;;;7.38;100.00
74163;BME280;62515;52.758;5.076;2023-02-13T09:56:17;103885.59;;;7.51;100.00
74163;BME280;62515;52.758;5.076;2023-02-13T09:59:08;103882.97;;;7.46;100.00
74163;BME280;62515;52.758;5.076;2023-02-13T10:15:38;103881.72;;;7.77;100.00
74163;BME280;62515;52.758;5.076;2023-02-13T10:18:26;103880.84;;;7.80;100.00
74163;BME280;62515;52.758;5.076;2023-02-13T10:20:57;103882.59;;;7.79;100.00
74163;BME280;62515;52.758;5.076;2023-02-13T10:23:26;103875.50;;;7.83;100.00
74163;BME280;62515;52.758;5.076;2023-02-13T10:25:57;103876.22;;;7.96;100.00
74163;BME280;62515;52.758;5.076;2023-02-13T10:28:31;103870.66;;;8.14;100.00
74163;BME280;62515;52.758;5.076;2023-02-13T10:31:04;103872.31;;;8.24;100.00
74163;BME280;62515;52.758;5.076;2023-02-13T10:33:39;103863.44;;;8.25;100.00
74163;BME280;62515;52.758;5.076;2023-02-13T10:36:15;103862.50;;;8.32;100.00
74163;BME280;62515;52.758;5.076;2023-02-13T10:38:45;103866.06;;;8.29;100.00
74163;BME280;62515;52.758;5.076;2023-02-13T10:41:22;103866.34;;;8.07;100.00
74163;BME280;62515;52.758;5.076;2023-02-13T10:44:03;103868.16;;;8.05;100.00
74163;BME280;62515;52.758;5.076;2023-02-13T10:46:42;103863.59;;;8.16;100.00
74163;BME280;62515;52.758;5.076;2023-02-13T10:49:27;103857.16;;;8.33;100.00
74163;BME280;62515;52.758;5.076;2023-02-13T10:52:03;103858.94;;;8.33;100.00
74163;BME280;62515;52.758;5.076;2023-02-13T10:54:50;103856.28;;;8.33;100.00
74163;BME280;62515;52.758;5.076;2023-02-13T10:57:22;103850.78;;;8.48;100.00
74163;BME280;62515;52.758;5.076;2023-02-13T11:00:06;103851.56;;;8.53;100.00
74163;BME280;62515;52.758;5.076;2023-02-13T11:02:39;103844.53;;;8.51;100.00
74163;BME280;62515;52.758;5.076;2023-02-13T11:05:13;103844.28;;;8.67;100.00
74163;BME280;62515;52.758;5.076;2023-02-13T11:07:43;103842.41;;;8.72;100.00
74163;BME280;62515;52.758;5.076;2023-02-13T11:10:14;103841.56;;;8.70;100.00
74163;BME280;62515;52.758;5.076;2023-02-13T11:12:41;103831.06;;;8.64;100.00
74163;BME280;62515;52.758;5.076;2023-02-13T11:15:20;103837.09;;;8.72;100.00
74163;BME280;62515;52.758;5.076;2023-02-13T11:17:49;103823.03;;;8.66;100.00
74163;BME280;62515;52.758;5.076;2023-02-13T11:20:30;103828.50;;;8.55;100.00
74163;BME280;62515;52.758;5.076;2023-02-13T11:23:17;103825.59;;;8.72;100.00
74163;BME280;62515;52.758;5.076;2023-02-13T11:25:54;103821.94;;;8.79;100.00
74163;BME280;62515;52.758;5.076;2023-02-13T11:28:22;103827.97;;;8.88;100.00
74163;BME280;62515;52.758;5.076;2023-02-13T11:30:49;103837.81;;;8.83;100.00
74163;BME280;62515;52.758;5.076;2023-02-13T11:33:21;103823.53;;;8.89;100.00
74163;BME280;62515;52.758;5.076;2023-02-13T11:35:48;103822.00;;;8.77;100.00
74163;BME280;62515;52.758;5.076;2023-02-13T11:38:23;103823.78;;;8.75;100.00
74163;BME280;62515;52.758;5.076;2023-02-13T11:40:52;103821.22;;;8.69;100.00
74163;BME280;62515;52.758;5.076;2023-02-13T11:43:30;103822.13;;;8.68;100.00
74163;BME280;62515;52.758;5.076;2023-02-13T11:46:01;103816.81;;;8.68;100.00
74163;BME280;62515;52.758;5.076;2023-02-13T11:48:30;103822.03;;;8.74;100.00
74163;BME280;62515;52.758;5.076;2023-02-13T11:50:58;103815.56;;;8.89;100.00
74163;BME280;62515;52.758;5.076;2023-02-13T11:53:28;103816.34;;;8.96;100.00
74163;BME280;62515;52.758;5.076;2023-02-13T11:56:04;103814.69;;;8.88;100.00
74163;BME280;62515;52.758;5.076;2023-02-13T11:58:33;103764.69;;;8.64;100.00
74163;BME280;62515;52.758;5.076;2023-02-13T12:01:23;103787.41;;;8.79;100.00
74163;BME280;62515;52.758;5.076;2023-02-13T12:04:01;103814.47;;;9.01;100.00
74163;BME280;62515;52.758;5.076;2023-02-13T12:06:28;103804.88;;;8.93;100.00
74163;BME280;62515;52.758;5.076;2023-02-13T12:08:56;103802.06;;;9.03;100.00
74163;BME280;62515;52.758;5.076;2023-02-13T12:11:27;103806.50;;;9.02;100.00
74163;BME280;62515;52.758;5.076;2023-02-13T12:13:59;103797.56;;;9.06;100.00
74163;BME280;62515;52.758;5.076;2023-02-13T12:16:31;103800.94;;;9.14;100.00
74163;BME280;62515;52.758;5.076;2023-02-13T12:19:04;103803.66;;;9.13;100.00
74163;BME280;62515;52.758;5.076;2023-02-13T12:21:43;103804.47;;;9.16;100.00
74163;BME280;62515;52.758;5.076;2023-02-13T12:24:21;103794.72;;;9.17;100.00
74163;BME280;62515;52.758;5.076;2023-02-13T12:26:59;103798.28;;;9.16;100.00
74163;BME280;62515;52.758;5.076;2023-02-13T12:29:52;103795.03;;;9.00;100.00
74163;BME280;62515;52.758;5.076;2023-02-13T12:32:31;103792.19;;;9.09;100.00
74163;BME280;62515;52.758;5.076;2023-02-13T12:35:20;103792.06;;;9.17;100.00
74163;BME280;62515;52.758;5.076;2023-02-13T12:38:00;103797.06;;;9.32;100.00
74163;BME280;62515;52.758;5.076;2023-02-13T12:40:57;103789.22;;;9.26;100.00
74163;BME280;62515;52.758;5.076;2023-02-13T12:43:41;103786.81;;;9.12;100.00
74163;BME280;62515;52.758;5.076;2023-02-13T12:46:15;103778.84;;;9.12;100.00
74163;BME280;62515;52.758;5.076;2023-02-13T12:48:51;103777.34;;;8.98;100.00
74163;BME280;62515;52.758;5.076;2023-02-13T12:51:34;103771.19;;;8.97;100.00
74163;BME280;62515;52.758;5.076;2023-02-13T12:57:05;103761.41;;;8.98;100.00
74163;BME280;62515;52.758;5.076;2023-02-13T12:59:45;103759.63;;;9.00;100.00
74163;BME280;62515;52.758;5.076;2023-02-13T13:02:43;103755.78;;;9.14;100.00
74163;BME280;62515;52.758;5.076;2023-02-13T13:05:35;103759.13;;;9.24;100.00
74163;BME280;62515;52.758;5.076;2023-02-13T13:08:24;103761.06;;;9.16;100.00
74163;BME280;62515;52.758;5.076;2023-02-13T13:11:06;103754.06;;;9.12;100.00
74163;BME280;62515;52.758;5.076;2023-02-13T13:13:41;103746.97;;;9.11;100.00
74163;BME280;62515;52.758;5.076;2023-02-13T13:16:18;103752.16;;;9.20;100.00
74163;BME280;62515;52.758;5.076;2023-02-13T13:18:57;103747.59;;;9.25;100.00
74163;BME280;62515;52.758;5.076;2023-02-13T13:21:36;103749.03;;;9.42;100.00
74163;BME280;62515;52.758;5.076;2023-02-13T13:24:21;103745.50;;;9.42;100.00
74163;BME280;62515;52.758;5.076;2023-02-13T13:26:51;103735.63;;;9.47;100.00
74163;BME280;62515;52.758;5.076;2023-02-13T13:29:21;103737.19;;;9.57;100.00
74163;BME280;62515;52.758;5.076;2023-02-13T13:31:53;103737.25;;;9.54;100.00
74163;BME280;62515;52.758;5.076;2023-02-13T13:34:24;103725.81;;;9.51;100.00
74163;BME280;62515;52.758;5.076;2023-02-13T13:36:56;103732.94;;;9.49;100.00
74163;BME280;62515;52.758;5.076;2023-02-13T13:39:42;103727.50;;;9.53;100.00
74163;BME280;62515;52.758;5.076;2023-02-13T13:42:17;103727.75;;;9.42;100.00
74163;BME280;62515;52.758;5.076;2023-02-13T13:44:58;103716.47;;;9.30;100.00
74163;BME280;62515;52.758;5.076;2023-02-13T13:47:44;103717.66;;;9.17;100.00
74163;BME280;62515;52.758;5.076;2023-02-13T13:50:18;103712.91;;;9.32;100.00
74163;BME280;62515;52.758;5.076;2023-02-13T13:53:03;103717.97;;;9.43;100.00
74163;BME280;62515;52.758;5.076;2023-02-13T13:56:02;103715.81;;;9.62;100.00
74163;BME280;62515;52.758;5.076;2023-02-13T13:58:34;103709.69;;;9.96;100.00
74163;BME280;62515;52.758;5.076;2023-02-13T14:01:21;103706.28;;;9.91;100.00
74163;BME280;62515;52.758;5.076;2023-02-13T14:03:49;103713.69;;;9.77;100.00
74163;BME280;62515;52.758;5.076;2023-02-13T14:06:17;103705.66;;;9.79;100.00
74163;BME280;62515;52.758;5.076;2023-02-13T14:11:49;103694.72;;;9.54;100.00
74163;BME280;62515;52.758;5.076;2023-02-13T14:14:49;103697.66;;;9.42;100.00
74163;BME280;62515;52.758;5.076;2023-02-13T14:17:51;103700.44;;;9.36;100.00
74163;BME280;62515;52.758;5.076;2023-02-13T14:20:34;103696.03;;;9.33;100.00
74163;BME280;62515;52.758;5.076;2023-02-13T14:25:47;103698.00;;;9.25;100.00
74163;BME280;62515;52.758;5.076;2023-02-13T14:28:21;103692.88;;;9.16;100.00
74163;BME280;62515;52.758;5.076;2023-02-13T14:30:49;103693.69;;;9.20;100.00
74163;BME280;62515;52.758;5.076;2023-02-13T14:33:25;103686.69;;;9.16;100.00
74163;BME280;62515;52.758;5.076;2023-02-13T14:36:02;103694.66;;;9.16;100.00
74163;BME280;62515;52.758;5.076;2023-02-13T14:38:30;103691.19;;;9.12;100.00
74163;BME280;62515;52.758;5.076;2023-02-13T14:40:57;103691.31;;;9.05;100.00
74163;BME280;62515;52.758;5.076;2023-02-13T14:43:29;103677.63;;;8.81;100.00
74163;BME280;62515;52.758;5.076;2023-02-13T14:46:02;103676.91;;;8.73;100.00
74163;BME280;62515;52.758;5.076;2023-02-13T14:48:38;103674.31;;;8.69;100.00
74163;BME280;62515;52.758;5.076;2023-02-13T14:51:16;103676.91;;;8.73;100.00
74163;BME280;62515;52.758;5.076;2023-02-13T14:53:48;103672.53;;;8.69;100.00
74163;BME280;62515;52.758;5.076;2023-02-13T14:56:19;103671.81;;;8.61;100.00
74163;BME280;62515;52.758;5.076;2023-02-13T14:58:51;103663.16;;;8.50;100.00
74163;BME280;62515;52.758;5.076;2023-02-13T15:01:27;103667.66;;;8.48;100.00
74163;BME280;62515;52.758;5.076;2023-02-13T15:04:00;103668.59;;;8.44;100.00
74163;BME280;62515;52.758;5.076;2023-02-13T15:06:32;103671.13;;;8.52;100.00
74163;BME280;62515;52.758;5.076;2023-02-13T15:09:03;103672.91;;;8.51;100.00
74163;BME280;62515;52.758;5.076;2023-02-13T15:11:35;103674.75;;;8.46;100.00
74163;BME280;62515;52.758;5.076;2023-02-13T15:14:17;103674.84;;;8.40;100.00
74163;BME280;62515;52.758;5.076;2023-02-13T15:16:46;103674.19;;;8.29;100.00
74163;BME280;62515;52.758;5.076;2023-02-13T15:19:25;103667.25;;;8.19;100.00
74163;BME280;62515;52.758;5.076;2023-02-13T15:21:55;103668.19;;;8.13;100.00
74163;BME280;62515;52.758;5.076;2023-02-13T15:24:23;103666.53;;;8.08;100.00
74163;BME280;62515;52.758;5.076;2023-02-13T15:26:57;103676.31;;;8.06;100.00
74163;BME280;62515;52.758;5.076;2023-02-13T15:29:27;103674.59;;;8.02;100.00